Time,TemperatureF,DewpointF,PressureIn,WindDirection,WindDirectionDegrees,WindSpeedMPH,WindSpeedGustMPH,Humidity,HourlyPrecipIn,Conditions,Clouds,dailyrainin,SoftwareType,DateUTC
2013-01-09 00:04:00,54.4,49.0,30.22,East,93,0.0,3.0,82,0.00,,SKC,0.00,VWS V14.01,2013-01-09 06:04:00,
2013-01-09 00:09:00,54.3,48.9,30.22,East,87,0.0,0.0,82,0.00,,SKC,0.00,VWS V14.01,2013-01-09 06:09:00,
2013-01-09 00:14:00,54.3,48.9,30.22,East,82,1.0,3.0,82,0.00,,SKC,0.00,VWS V14.01,2013-01-09 06:14:00,
2013-01-09 00:19:00,54.3,49.3,30.22,East,86,0.0,1.0,83,0.00,,SKC,0.00,VWS V14.01,2013-01-09 06:19:00,
2013-01-09 00:24:00,54.3,49.3,30.22,East,82,0.0,0.0,83,0.00,,SKC,0.00,VWS V14.01,2013-01-09 06:24:00,
2013-01-09 00:29:00,54.3,49.3,30.22,East,84,0.0,0.0,83,0.00,,SKC,0.00,VWS V14.01,2013-01-09 06:29:00,
2013-01-09 00:34:00,54.3,49.3,30.22,East,87,1.0,1.0,83,0.00,,SKC,0.00,VWS V14.01,2013-01-09 06:34:00,
2013-01-09 00:39:00,54.3,49.3,30.22,East,96,1.0,1.0,83,0.00,,SKC,0.00,VWS V14.01,2013-01-09 06:39:00,
2013-01-09 00:44:00,54.3,49.3,30.23,East,84,0.0,0.0,83,0.00,,SKC,0.00,VWS V14.01,2013-01-09 06:44:00,
2013-01-09 00:49:00,54.4,49.3,30.22,ESE,102,0.0,2.0,83,0.00,,SKC,0.00,VWS V14.01,2013-01-09 06:49:00,
2013-01-09 00:54:00,54.4,49.3,30.23,ENE,74,0.0,0.0,83,0.00,,SKC,0.00,VWS V14.01,2013-01-09 06:54:00,
2013-01-09 00:59:00,54.3,49.3,30.23,ESE,105,0.0,1.0,83,0.00,,SKC,0.00,VWS V14.01,2013-01-09 06:59:00,
2013-01-09 01:05:00,54.4,49.3,30.23,ESE,122,2.0,2.0,83,0.00,,SKC,0.00,VWS V14.01,2013-01-09 07:05:00,
2013-01-09 01:10:00,54.4,49.3,30.23,ESE,112,0.0,1.0,83,0.00,,SKC,0.00,VWS V14.01,2013-01-09 07:10:00,
2013-01-09 01:15:00,54.4,49.3,30.23,East,90,1.0,1.0,83,0.00,,SKC,0.00,VWS V14.01,2013-01-09 07:15:00,
2013-01-09 01:20:00,54.4,49.3,30.23,East,98,0.0,0.0,83,0.00,,SKC,0.00,VWS V14.01,2013-01-09 07:20:00,
2013-01-09 01:25:00,54.4,49.3,30.23,East,97,2.0,2.0,83,0.00,,SKC,0.00,VWS V14.01,2013-01-09 07:25:00,
2013-01-09 01:30:00,54.4,49.3,30.23,ESE,103,0.0,3.0,83,0.00,,SKC,0.00,VWS V14.01,2013-01-09 07:30:00,
2013-01-09 01:35:00,54.3,49.3,30.22,ENE,78,2.0,2.0,83,0.00,,SKC,0.00,VWS V14.01,2013-01-09 07:35:00,
2013-01-09 01:40:00,54.3,49.3,30.23,East,91,2.0,5.0,83,0.00,,SKC,0.00,VWS V14.01,2013-01-09 07:40:00,
2013-01-09 01:45:00,54.2,49.2,30.22,East,91,2.0,2.0,83,0.00,,SKC,0.00,VWS V14.01,2013-01-09 07:45:00,
2013-01-09 01:50:00,54.2,49.2,30.22,East,88,0.0,3.0,83,0.00,,SKC,0.00,VWS V14.01,2013-01-09 07:50:00,
2013-01-09 01:55:00,54.3,49.3,30.22,East,87,0.0,1.0,83,0.00,,SKC,0.00,VWS V14.01,2013-01-09 07:55:00,
2013-01-09 02:00:00,54.4,49.3,30.23,ESE,106,0.0,7.0,83,0.00,,SKC,0.00,VWS V14.01,2013-01-09 08:00:00,
2013-01-09 02:05:00,54.4,49.3,30.23,East,96,0.0,2.0,83,0.00,,SKC,0.00,VWS V14.01,2013-01-09 08:05:00,
2013-01-09 02:10:00,54.5,49.5,30.22,ENE,74,2.0,5.0,83,0.00,,SKC,0.00,VWS V14.01,2013-01-09 08:10:00,
2013-01-09 02:15:00,54.5,49.1,30.22,East,98,0.0,2.0,82,0.00,,SKC,0.00,VWS V14.01,2013-01-09 08:15:00,
2013-01-09 02:20:00,54.5,49.1,30.22,East,82,0.0,2.0,82,0.00,,SKC,0.00,VWS V14.01,2013-01-09 08:20:00,
2013-01-09 02:25:00,54.4,49.0,30.23,East,94,3.0,4.0,82,0.00,,SKC,0.00,VWS V14.01,2013-01-09 08:25:00,
2013-01-09 02:30:00,54.4,49.3,30.22,East,90,0.0,0.0,83,0.00,,SKC,0.00,VWS V14.01,2013-01-09 08:30:00,
2013-01-09 02:35:00,54.4,49.3,30.22,East,96,0.0,2.0,83,0.00,,SKC,0.00,VWS V14.01,2013-01-09 08:35:00,
2013-01-09 02:40:00,54.4,49.3,30.23,East,101,1.0,2.0,83,0.00,,SKC,0.00,VWS V14.01,2013-01-09 08:40:00,
2013-01-09 02:45:00,54.4,49.3,30.23,ESE,113,0.0,0.0,83,0.00,,SKC,0.00,VWS V14.01,2013-01-09 08:45:00,
2013-01-09 02:50:00,54.5,49.5,30.23,ESE,114,0.0,0.0,83,0.00,,SKC,0.00,VWS V14.01,2013-01-09 08:50:00,
2013-01-09 02:55:00,54.5,49.5,30.23,East,98,4.0,4.0,83,0.00,,SKC,0.00,VWS V14.01,2013-01-09 08:55:00,
2013-01-09 03:00:00,54.6,49.5,30.23,ENE,58,0.0,0.0,83,0.00,,SKC,0.00,VWS V14.01,2013-01-09 09:00:00,
2013-01-09 03:05:00,54.5,49.8,30.24,ENE,74,0.0,0.0,84,0.00,,SKC,0.00,VWS V14.01,2013-01-09 09:05:00,
2013-01-09 03:10:00,54.3,49.9,30.24,East,96,0.0,0.0,85,0.00,,SKC,0.00,VWS V14.01,2013-01-09 09:10:00,
2013-01-09 03:15:00,53.9,49.8,30.23,East,101,2.0,2.0,86,0.01,,SKC,0.01,VWS V14.01,2013-01-09 09:15:00,
2013-01-09 03:20:00,53.6,49.8,30.23,ESE,106,1.0,2.0,87,0.01,,SKC,0.01,VWS V14.01,2013-01-09 09:20:00,
2013-01-09 03:25:00,53.3,49.8,30.23,East,92,2.0,2.0,88,0.02,,SKC,0.02,VWS V14.01,2013-01-09 09:25:00,
2013-01-09 03:30:00,52.9,49.8,30.24,ESE,123,4.0,4.0,89,0.02,,SKC,0.02,VWS V14.01,2013-01-09 09:30:00,
2013-01-09 03:35:00,52.7,49.8,30.24,East,96,2.0,2.0,90,0.02,,SKC,0.02,VWS V14.01,2013-01-09 09:35:00,
2013-01-09 03:40:00,52.6,49.8,30.23,East,87,2.0,4.0,90,0.02,,SKC,0.02,VWS V14.01,2013-01-09 09:40:00,
2013-01-09 03:45:00,52.4,49.6,30.24,East,88,0.0,0.0,90,0.02,,SKC,0.02,VWS V14.01,2013-01-09 09:45:00,
2013-01-09 03:50:00,52.4,49.6,30.24,East,88,0.0,0.0,90,0.02,,SKC,0.02,VWS V14.01,2013-01-09 09:50:00,
2013-01-09 03:56:00,52.3,49.8,30.24,East,88,0.0,0.0,91,0.03,,SKC,0.03,VWS V14.01,2013-01-09 09:56:00,
2013-01-09 04:01:00,52.2,49.7,30.24,East,88,0.0,0.0,91,0.03,,SKC,0.03,VWS V14.01,2013-01-09 10:01:00,
2013-01-09 04:06:00,52.1,49.8,30.24,East,88,0.0,0.0,92,0.03,,SKC,0.03,VWS V14.01,2013-01-09 10:06:00,
2013-01-09 04:11:00,52.1,49.8,30.24,East,88,0.0,2.0,92,0.03,,SKC,0.03,VWS V14.01,2013-01-09 10:11:00,
2013-01-09 04:16:00,52.0,49.8,30.24,East,88,0.0,0.0,92,0.02,,SKC,0.03,VWS V14.01,2013-01-09 10:16:00,
2013-01-09 04:21:00,52.0,49.8,30.24,East,88,0.0,2.0,92,0.02,,SKC,0.03,VWS V14.01,2013-01-09 10:21:00,
2013-01-09 04:26:00,51.9,49.7,30.24,East,88,0.0,0.0,92,0.01,,SKC,0.03,VWS V14.01,2013-01-09 10:26:00,
2013-01-09 04:31:00,52.0,50.0,30.23,East,88,0.0,0.0,93,0.01,,SKC,0.03,VWS V14.01,2013-01-09 10:31:00,
2013-01-09 04:36:00,52.1,50.1,30.23,ESE,105,0.0,0.0,93,0.01,,SKC,0.03,VWS V14.01,2013-01-09 10:36:00,
2013-01-09 04:41:00,52.1,50.1,30.24,ESE,105,0.0,0.0,93,0.01,,SKC,0.03,VWS V14.01,2013-01-09 10:41:00,
2013-01-09 04:46:00,52.1,50.1,30.24,ESE,105,0.0,0.0,93,0.01,,SKC,0.03,VWS V14.01,2013-01-09 10:46:00,
2013-01-09 04:51:00,52.1,50.1,30.24,ESE,112,0.0,1.0,93,0.01,,SKC,0.03,VWS V14.01,2013-01-09 10:51:00,
2013-01-09 04:56:00,52.2,50.2,30.24,ESE,110,3.0,3.0,93,0.00,,SKC,0.03,VWS V14.01,2013-01-09 10:56:00,
2013-01-09 05:01:00,52.2,50.2,30.24,ESE,107,0.0,0.0,93,0.00,,SKC,0.03,VWS V14.01,2013-01-09 11:01:00,
2013-01-09 05:06:00,52.3,50.3,30.24,East,83,0.0,0.0,93,0.00,,SKC,0.03,VWS V14.01,2013-01-09 11:06:00,
2013-01-09 05:11:00,52.3,50.3,30.24,East,86,0.0,0.0,93,0.00,,SKC,0.03,VWS V14.01,2013-01-09 11:11:00,
2013-01-09 05:16:00,52.4,50.4,30.24,ESE,106,2.0,2.0,93,0.00,,SKC,0.03,VWS V14.01,2013-01-09 11:16:00,
2013-01-09 05:21:00,52.5,50.5,30.24,East,96,5.0,5.0,93,0.00,,SKC,0.03,VWS V14.01,2013-01-09 11:21:00,
2013-01-09 05:26:00,52.6,50.6,30.24,ESE,104,0.0,0.0,93,0.00,,SKC,0.03,VWS V14.01,2013-01-09 11:26:00,
2013-01-09 05:31:00,52.6,50.6,30.25,ESE,106,0.0,0.0,93,0.00,,SKC,0.03,VWS V14.01,2013-01-09 11:31:00,
2013-01-09 05:36:00,52.6,50.6,30.24,ESE,106,0.0,0.0,93,0.00,,SKC,0.03,VWS V14.01,2013-01-09 11:36:00,
2013-01-09 05:42:00,52.6,50.6,30.25,ESE,105,0.0,0.0,93,0.00,,SKC,0.03,VWS V14.01,2013-01-09 11:42:00,
2013-01-09 05:47:00,52.6,50.6,30.25,East,98,0.0,0.0,93,0.00,,SKC,0.03,VWS V14.01,2013-01-09 11:47:00,
2013-01-09 05:52:00,52.7,50.7,30.24,ESE,103,2.0,3.0,93,0.00,,SKC,0.03,VWS V14.01,2013-01-09 11:52:00,
2013-01-09 05:57:00,52.8,50.8,30.24,East,92,3.0,5.0,93,0.01,,SKC,0.04,VWS V14.01,2013-01-09 11:57:00,
2013-01-09 06:02:00,52.9,50.9,30.25,ESE,118,0.0,3.0,93,0.01,,SKC,0.04,VWS V14.01,2013-01-09 12:02:00,
2013-01-09 06:07:00,52.9,50.6,30.25,East,92,1.0,2.0,92,0.01,,SKC,0.04,VWS V14.01,2013-01-09 12:07:00,
2013-01-09 06:12:00,53.0,51.0,30.25,SE,126,0.0,0.0,93,0.01,,SKC,0.04,VWS V14.01,2013-01-09 12:12:00,
2013-01-09 06:17:00,53.1,50.8,30.25,ENE,73,0.0,0.0,92,0.01,,SKC,0.04,VWS V14.01,2013-01-09 12:17:00,
2013-01-09 06:22:00,53.2,50.9,30.25,East,98,0.0,0.0,92,0.01,,SKC,0.04,VWS V14.01,2013-01-09 12:22:00,
2013-01-09 06:27:00,53.3,51.0,30.25,East,88,3.0,3.0,92,0.01,,SKC,0.04,VWS V14.01,2013-01-09 12:27:00,
2013-01-09 06:32:00,53.3,51.0,30.25,East,99,2.0,2.0,92,0.01,,SKC,0.04,VWS V14.01,2013-01-09 12:32:00,
2013-01-09 06:37:00,53.3,51.0,30.25,East,98,3.0,4.0,92,0.01,,SKC,0.04,VWS V14.01,2013-01-09 12:37:00,
2013-01-09 06:42:00,53.4,51.1,30.25,ESE,103,4.0,4.0,92,0.01,,SKC,0.04,VWS V14.01,2013-01-09 12:42:00,
2013-01-09 06:47:00,53.5,51.2,30.25,East,101,2.0,5.0,92,0.01,,SKC,0.04,VWS V14.01,2013-01-09 12:47:00,
2013-01-09 06:52:00,53.6,51.3,30.25,East,99,0.0,0.0,92,0.01,,SKC,0.04,VWS V14.01,2013-01-09 12:52:00,
2013-01-09 06:57:00,53.7,51.4,30.26,ESE,104,3.0,3.0,92,0.00,,SKC,0.04,VWS V14.01,2013-01-09 12:57:00,
2013-01-09 07:02:00,53.8,51.5,30.26,East,91,2.0,2.0,92,0.00,,SKC,0.04,VWS V14.01,2013-01-09 13:02:00,
2013-01-09 07:07:00,53.8,51.5,30.26,East,89,0.0,2.0,92,0.00,,SKC,0.04,VWS V14.01,2013-01-09 13:07:00,
2013-01-09 07:13:00,53.9,51.6,30.26,East,87,0.0,2.0,92,0.00,,SKC,0.04,VWS V14.01,2013-01-09 13:13:00,
2013-01-09 07:18:00,53.9,51.6,30.27,ESE,107,2.0,5.0,92,0.00,,SKC,0.04,VWS V14.01,2013-01-09 13:18:00,
2013-01-09 07:23:00,54.0,51.7,30.27,East,97,0.0,2.0,92,0.00,,SKC,0.04,VWS V14.01,2013-01-09 13:23:00,
2013-01-09 07:28:00,54.1,51.8,30.28,East,80,0.0,0.0,92,0.00,,SKC,0.04,VWS V14.01,2013-01-09 13:28:00,
2013-01-09 07:33:00,54.1,51.8,30.28,East,93,2.0,2.0,92,0.00,,SKC,0.04,VWS V14.01,2013-01-09 13:33:00,
2013-01-09 07:38:00,54.2,51.9,30.28,ESE,115,0.0,4.0,92,0.00,,SKC,0.04,VWS V14.01,2013-01-09 13:38:00,
2013-01-09 07:43:00,54.3,51.7,30.29,East,95,0.0,0.0,91,0.00,,SKC,0.04,VWS V14.01,2013-01-09 13:43:00,
2013-01-09 07:48:00,54.3,51.7,30.29,East,94,1.0,1.0,91,0.00,,SKC,0.04,VWS V14.01,2013-01-09 13:48:00,
2013-01-09 07:53:00,54.4,51.8,30.30,East,95,0.0,0.0,91,0.00,,SKC,0.04,VWS V14.01,2013-01-09 13:53:00,
2013-01-09 07:58:00,54.4,51.8,30.30,East,98,0.0,1.0,91,0.00,,SKC,0.04,VWS V14.01,2013-01-09 13:58:00,
2013-01-09 08:03:00,54.5,51.9,30.30,East,82,0.0,0.0,91,0.00,,SKC,0.04,VWS V14.01,2013-01-09 14:03:00,
2013-01-09 08:08:00,54.5,51.9,30.30,East,85,0.0,0.0,91,0.00,,SKC,0.04,VWS V14.01,2013-01-09 14:08:00,
2013-01-09 08:14:00,54.6,52.0,30.30,East,96,0.0,1.0,91,0.00,,SKC,0.04,VWS V14.01,2013-01-09 14:14:00,
2013-01-09 08:19:00,54.7,52.1,30.29,East,88,5.0,5.0,91,0.00,,SKC,0.04,VWS V14.01,2013-01-09 14:19:00,
2013-01-09 08:24:00,54.8,52.2,30.29,East,99,3.0,3.0,91,0.00,,SKC,0.04,VWS V14.01,2013-01-09 14:24:00,
2013-01-09 08:29:00,54.9,52.3,30.30,East,89,0.0,2.0,91,0.00,,SKC,0.04,VWS V14.01,2013-01-09 14:29:00,
2013-01-09 08:34:00,55.0,52.4,30.30,ESE,113,2.0,2.0,91,0.00,,SKC,0.04,VWS V14.01,2013-01-09 14:34:00,
2013-01-09 08:39:00,55.1,52.5,30.30,East,93,3.0,5.0,91,0.00,,SKC,0.04,VWS V14.01,2013-01-09 14:39:00,
2013-01-09 08:44:00,55.3,52.7,30.30,East,90,0.0,2.0,91,0.00,,SKC,0.04,VWS V14.01,2013-01-09 14:44:00,
2013-01-09 08:49:00,55.4,52.8,30.30,ESE,105,0.0,1.0,91,0.00,,SKC,0.04,VWS V14.01,2013-01-09 14:49:00,
2013-01-09 08:54:00,55.5,52.9,30.30,East,84,2.0,4.0,91,0.00,,SKC,0.04,VWS V14.01,2013-01-09 14:54:00,
2013-01-09 08:59:00,55.6,52.7,30.30,ESE,107,0.0,2.0,90,0.00,,SKC,0.04,VWS V14.01,2013-01-09 14:59:00,
2013-01-09 09:04:00,55.7,52.8,30.30,East,98,2.0,2.0,90,0.00,,SKC,0.04,VWS V14.01,2013-01-09 15:04:00,
2013-01-09 09:09:00,55.8,52.9,30.30,SE,141,0.0,1.0,90,0.00,,SKC,0.04,VWS V14.01,2013-01-09 15:09:00,
2013-01-09 09:14:00,55.8,52.9,30.30,East,98,0.0,0.0,90,0.00,,SKC,0.04,VWS V14.01,2013-01-09 15:14:00,
2013-01-09 09:19:00,55.8,52.9,30.30,ENE,64,5.0,7.0,90,0.00,,SKC,0.04,VWS V14.01,2013-01-09 15:19:00,
2013-01-09 09:24:00,55.9,53.0,30.29,East,94,4.0,6.0,90,0.00,,SKC,0.04,VWS V14.01,2013-01-09 15:24:00,
2013-01-09 09:29:00,55.9,53.0,30.29,East,97,1.0,5.0,90,0.00,,SKC,0.04,VWS V14.01,2013-01-09 15:29:00,
2013-01-09 09:35:00,56.1,53.2,30.30,East,98,3.0,4.0,90,0.00,,SKC,0.04,VWS V14.01,2013-01-09 15:35:00,
2013-01-09 09:40:00,56.2,53.3,30.31,ESE,113,0.0,1.0,90,0.00,,SKC,0.04,VWS V14.01,2013-01-09 15:40:00,
2013-01-09 09:45:00,56.4,53.5,30.31,SE,128,0.0,5.0,90,0.00,,SKC,0.04,VWS V14.01,2013-01-09 15:45:00,
2013-01-09 09:50:00,56.6,53.7,30.32,ESE,123,2.0,3.0,90,0.00,,SKC,0.04,VWS V14.01,2013-01-09 15:50:00,
2013-01-09 09:55:00,56.7,53.5,30.31,East,81,0.0,0.0,89,0.00,,SKC,0.04,VWS V14.01,2013-01-09 15:55:00,
2013-01-09 10:00:00,56.8,53.6,30.30,East,94,1.0,1.0,89,0.00,,SKC,0.04,VWS V14.01,2013-01-09 16:00:00,
2013-01-09 10:05:00,56.9,53.7,30.30,East,88,4.0,4.0,89,0.00,,SKC,0.04,VWS V14.01,2013-01-09 16:05:00,
2013-01-09 10:10:00,56.9,53.7,30.29,East,99,3.0,3.0,89,0.00,,SKC,0.04,VWS V14.01,2013-01-09 16:10:00,
2013-01-09 10:15:00,57.0,53.8,30.29,East,90,2.0,3.0,89,0.00,,SKC,0.04,VWS V14.01,2013-01-09 16:15:00,
2013-01-09 10:20:00,57.1,53.6,30.29,ESE,110,1.0,4.0,88,0.00,,SKC,0.04,VWS V14.01,2013-01-09 16:20:00,
2013-01-09 10:25:00,57.2,54.0,30.28,NE,51,2.0,2.0,89,0.00,,SKC,0.04,VWS V14.01,2013-01-09 16:25:00,
2013-01-09 10:30:00,57.5,54.3,30.28,East,98,4.0,4.0,89,0.00,,SKC,0.04,VWS V14.01,2013-01-09 16:30:00,
2013-01-09 10:35:00,57.6,54.4,30.28,East,88,2.0,4.0,89,0.00,,SKC,0.04,VWS V14.01,2013-01-09 16:35:00,
2013-01-09 10:40:00,57.8,54.3,30.28,ENE,77,3.0,8.0,88,0.00,,SKC,0.04,VWS V14.01,2013-01-09 16:40:00,
2013-01-09 10:45:00,57.8,54.3,30.28,ENE,65,3.0,3.0,88,0.00,,SKC,0.04,VWS V14.01,2013-01-09 16:45:00,
2013-01-09 10:50:00,57.9,54.4,30.28,East,95,1.0,1.0,88,0.00,,SKC,0.04,VWS V14.01,2013-01-09 16:50:00,
2013-01-09 10:55:00,58.0,54.5,30.27,East,87,3.0,5.0,88,0.00,,SKC,0.04,VWS V14.01,2013-01-09 16:55:00,
2013-01-09 11:00:00,58.2,54.7,30.27,ESE,103,5.0,5.0,88,0.00,,SKC,0.04,VWS V14.01,2013-01-09 17:00:00,
2013-01-09 11:05:00,58.2,54.7,30.27,East,101,4.0,5.0,88,0.00,,SKC,0.04,VWS V14.01,2013-01-09 17:05:00,
2013-01-09 11:11:00,58.3,54.8,30.27,SE,130,0.0,2.0,88,0.00,,SKC,0.04,VWS V14.01,2013-01-09 17:11:00,
2013-01-09 11:16:00,58.4,54.5,30.27,ESE,114,0.0,1.0,87,0.00,,SKC,0.04,VWS V14.01,2013-01-09 17:16:00,
2013-01-09 11:21:00,58.4,54.5,30.27,East,94,4.0,4.0,87,0.00,,SKC,0.04,VWS V14.01,2013-01-09 17:21:00,
2013-01-09 11:26:00,58.4,54.5,30.27,East,99,3.0,5.0,87,0.00,,SKC,0.04,VWS V14.01,2013-01-09 17:26:00,
2013-01-09 11:31:00,58.4,54.5,30.26,ESE,104,3.0,5.0,87,0.00,,SKC,0.04,VWS V14.01,2013-01-09 17:31:00,
2013-01-09 11:36:00,58.5,55.0,30.26,East,87,4.0,4.0,88,0.00,,SKC,0.04,VWS V14.01,2013-01-09 17:36:00,
2013-01-09 11:41:00,58.6,54.8,30.25,SE,124,0.0,0.0,87,0.00,,SKC,0.04,VWS V14.01,2013-01-09 17:41:00,
2013-01-09 11:46:00,58.9,55.0,30.25,SSE,153,5.0,5.0,87,0.00,,SKC,0.04,VWS V14.01,2013-01-09 17:46:00,
2013-01-09 11:51:00,59.0,55.1,30.26,East,80,2.0,2.0,87,0.00,,SKC,0.04,VWS V14.01,2013-01-09 17:51:00,
2013-01-09 11:56:00,59.0,55.1,30.25,ENE,76,3.0,4.0,87,0.00,,SKC,0.04,VWS V14.01,2013-01-09 17:56:00,
2013-01-09 12:01:00,59.0,55.1,30.25,East,101,3.0,5.0,87,0.00,,SKC,0.04,VWS V14.01,2013-01-09 18:01:00,
2013-01-09 12:06:00,59.0,55.1,30.25,ESE,110,3.0,5.0,87,0.00,,SKC,0.04,VWS V14.01,2013-01-09 18:06:00,
2013-01-09 12:11:00,58.8,55.3,30.25,East,83,4.0,4.0,88,0.00,,SKC,0.04,VWS V14.01,2013-01-09 18:11:00,
2013-01-09 12:16:00,58.7,55.2,30.25,East,89,1.0,2.0,88,0.00,,SKC,0.04,VWS V14.01,2013-01-09 18:16:00,
2013-01-09 12:21:00,58.8,55.3,30.25,East,88,3.0,3.0,88,0.00,,SKC,0.04,VWS V14.01,2013-01-09 18:21:00,
2013-01-09 12:26:00,59.0,55.5,30.25,East,87,2.0,3.0,88,0.00,,SKC,0.04,VWS V14.01,2013-01-09 18:26:00,
2013-01-09 12:31:00,59.0,55.1,30.25,ESE,108,0.0,2.0,87,0.00,,SKC,0.04,VWS V14.01,2013-01-09 18:31:00,
2013-01-09 12:37:00,59.4,55.8,30.25,ESE,102,1.0,1.0,88,0.00,,SKC,0.04,VWS V14.01,2013-01-09 18:37:00,
2013-01-09 12:41:00,59.6,55.7,30.24,East,99,0.0,1.0,87,0.00,,SKC,0.04,VWS V14.01,2013-01-09 18:41:00,
2013-01-09 12:42:00,59.7,55.8,30.24,East,99,0.0,1.0,87,0.00,,SKC,0.04,VWS V14.01,2013-01-09 18:42:00,
2013-01-09 12:44:00,59.8,55.9,30.24,East,84,0.0,2.0,87,0.00,,SKC,0.04,VWS V14.01,2013-01-09 18:44:00,
2013-01-09 12:48:00,59.9,55.7,30.24,East,86,4.0,5.0,86,0.00,,SKC,0.04,VWS V14.01,2013-01-09 18:48:00,
2013-01-09 12:49:00,59.9,55.7,30.24,East,92,4.0,4.0,86,0.00,,SKC,0.04,VWS V14.01,2013-01-09 18:49:00,
2013-01-09 12:54:00,59.9,55.7,30.24,East,101,1.0,1.0,86,0.00,,SKC,0.04,VWS V14.01,2013-01-09 18:54:00,
2013-01-09 12:59:00,59.8,55.6,30.24,East,90,4.0,4.0,86,0.00,,SKC,0.04,VWS V14.01,2013-01-09 18:59:00,
2013-01-09 13:04:00,59.7,55.8,30.23,East,79,4.0,5.0,87,0.00,,SKC,0.04,VWS V14.01,2013-01-09 19:04:00,
2013-01-09 13:09:00,59.8,55.9,30.23,ESE,109,3.0,4.0,87,0.00,,SKC,0.04,VWS V14.01,2013-01-09 19:09:00,
2013-01-09 13:14:00,60.0,56.1,30.23,ESE,111,0.0,1.0,87,0.00,,SKC,0.04,VWS V14.01,2013-01-09 19:14:00,
2013-01-09 13:19:00,60.3,56.1,30.23,ENE,64,3.0,3.0,86,0.00,,SKC,0.04,VWS V14.01,2013-01-09 19:19:00,
2013-01-09 13:25:00,60.4,55.9,30.23,ESE,110,4.0,6.0,85,0.00,,SKC,0.04,VWS V14.01,2013-01-09 19:25:00,
2013-01-09 13:30:00,60.4,55.9,30.23,ESE,103,7.0,7.0,85,0.00,,SKC,0.04,VWS V14.01,2013-01-09 19:30:00,
2013-01-09 13:35:00,60.5,56.0,30.23,NE,40,6.0,6.0,85,0.00,,SKC,0.04,VWS V14.01,2013-01-09 19:35:00,
2013-01-09 13:41:00,60.8,56.3,30.23,ESE,108,8.0,8.0,85,0.00,,SKC,0.04,VWS V14.01,2013-01-09 19:41:00,
2013-01-09 13:46:00,60.9,56.0,30.23,ESE,113,5.0,5.0,84,0.00,,SKC,0.04,VWS V14.01,2013-01-09 19:46:00,
2013-01-09 13:51:00,60.9,56.0,30.23,SE,134,0.0,6.0,84,0.00,,SKC,0.04,VWS V14.01,2013-01-09 19:51:00,
2013-01-09 13:56:00,61.0,56.5,30.23,ESE,118,1.0,4.0,85,0.00,,SKC,0.04,VWS V14.01,2013-01-09 19:56:00,
2013-01-09 14:01:00,61.1,56.2,30.23,ENE,62,5.0,6.0,84,0.00,,SKC,0.04,VWS V14.01,2013-01-09 20:01:00,
2013-01-09 14:06:00,61.1,56.2,30.22,East,94,3.0,5.0,84,0.00,,SKC,0.04,VWS V14.01,2013-01-09 20:06:00,
2013-01-09 14:11:00,61.2,56.3,30.23,East,99,2.0,4.0,84,0.00,,SKC,0.04,VWS V14.01,2013-01-09 20:11:00,
2013-01-09 14:16:00,61.3,56.4,30.23,ESE,112,0.0,4.0,84,0.00,,SKC,0.04,VWS V14.01,2013-01-09 20:16:00,
2013-01-09 14:21:00,61.4,56.5,30.23,East,83,0.0,3.0,84,0.00,,SKC,0.04,VWS V14.01,2013-01-09 20:21:00,
2013-01-09 14:26:00,61.5,56.6,30.23,East,100,0.0,0.0,84,0.00,,SKC,0.04,VWS V14.01,2013-01-09 20:26:00,
2013-01-09 14:31:00,61.6,56.7,30.23,East,98,1.0,1.0,84,0.00,,SKC,0.04,VWS V14.01,2013-01-09 20:31:00,
2013-01-09 14:36:00,61.6,56.7,30.23,East,98,3.0,3.0,84,0.00,,SKC,0.04,VWS V14.01,2013-01-09 20:36:00,
2013-01-09 14:41:00,61.6,56.7,30.23,East,94,5.0,5.0,84,0.00,,SKC,0.04,VWS V14.01,2013-01-09 20:41:00,
2013-01-09 14:46:00,61.6,56.7,30.23,ESE,113,6.0,6.0,84,0.00,,SKC,0.04,VWS V14.01,2013-01-09 20:46:00,
2013-01-09 14:51:00,61.7,56.8,30.23,ENE,57,2.0,5.0,84,0.00,,SKC,0.04,VWS V14.01,2013-01-09 20:51:00,
2013-01-09 14:56:00,61.7,56.8,30.23,ESE,102,3.0,4.0,84,0.00,,SKC,0.04,VWS V14.01,2013-01-09 20:56:00,
2013-01-09 15:01:00,61.8,56.9,30.23,ESE,108,0.0,1.0,84,0.00,,SKC,0.04,VWS V14.01,2013-01-09 21:01:00,
2013-01-09 15:07:00,61.9,56.7,30.23,ESE,107,1.0,6.0,83,0.00,,SKC,0.04,VWS V14.01,2013-01-09 21:07:00,
2013-01-09 15:12:00,61.9,57.0,30.24,East,88,1.0,5.0,84,0.00,,SKC,0.04,VWS V14.01,2013-01-09 21:12:00,
2013-01-09 15:17:00,62.0,57.1,30.24,East,90,1.0,3.0,84,0.00,,SKC,0.04,VWS V14.01,2013-01-09 21:17:00,
2013-01-09 15:22:00,62.0,57.1,30.24,East,98,2.0,4.0,84,0.00,,SKC,0.04,VWS V14.01,2013-01-09 21:22:00,
2013-01-09 15:27:00,62.0,57.1,30.23,ESE,105,0.0,0.0,84,0.00,,SKC,0.04,VWS V14.01,2013-01-09 21:27:00,
2013-01-09 15:32:00,62.1,57.2,30.23,ENE,75,2.0,2.0,84,0.00,,SKC,0.04,VWS V14.01,2013-01-09 21:32:00,
2013-01-09 15:37:00,62.1,57.2,30.23,East,97,3.0,3.0,84,0.00,,SKC,0.04,VWS V14.01,2013-01-09 21:37:00,
2013-01-09 15:42:00,62.1,57.2,30.23,ENE,77,1.0,3.0,84,0.00,,SKC,0.04,VWS V14.01,2013-01-09 21:42:00,
2013-01-09 15:47:00,62.0,57.1,30.23,East,95,3.0,3.0,84,0.00,,SKC,0.04,VWS V14.01,2013-01-09 21:47:00,
2013-01-09 15:52:00,62.0,57.1,30.23,East,99,3.0,3.0,84,0.00,,SKC,0.04,VWS V14.01,2013-01-09 21:52:00,
2013-01-09 15:57:00,62.0,57.1,30.23,ESE,109,2.0,4.0,84,0.00,,SKC,0.04,VWS V14.01,2013-01-09 21:57:00,
2013-01-09 16:02:00,62.0,57.1,30.23,East,92,2.0,2.0,84,0.00,,SKC,0.04,VWS V14.01,2013-01-09 22:02:00,
2013-01-09 16:07:00,61.9,57.0,30.23,East,99,3.0,3.0,84,0.00,,SKC,0.04,VWS V14.01,2013-01-09 22:07:00,
2013-01-09 16:12:00,61.9,57.0,30.23,East,84,0.0,1.0,84,0.00,,SKC,0.04,VWS V14.01,2013-01-09 22:12:00,
2013-01-09 16:17:00,61.8,56.9,30.23,East,94,0.0,0.0,84,0.00,,SKC,0.04,VWS V14.01,2013-01-09 22:17:00,
2013-01-09 16:22:00,61.8,56.9,30.23,NE,51,2.0,2.0,84,0.00,,SKC,0.04,VWS V14.01,2013-01-09 22:22:00,
2013-01-09 16:27:00,61.7,57.2,30.23,East,84,2.0,3.0,85,0.00,,SKC,0.04,VWS V14.01,2013-01-09 22:27:00,
2013-01-09 16:32:00,61.6,57.0,30.23,East,86,0.0,0.0,85,0.00,,SKC,0.04,VWS V14.01,2013-01-09 22:32:00,
2013-01-09 16:37:00,61.6,57.0,30.23,ESE,108,0.0,3.0,85,0.00,,SKC,0.04,VWS V14.01,2013-01-09 22:37:00,
2013-01-09 16:42:00,61.5,57.0,30.23,East,92,0.0,1.0,85,0.00,,SKC,0.04,VWS V14.01,2013-01-09 22:42:00,
2013-01-09 16:47:00,61.5,57.0,30.23,East,92,1.0,1.0,85,0.00,,SKC,0.04,VWS V14.01,2013-01-09 22:47:00,
2013-01-09 16:52:00,61.4,56.9,30.23,East,91,2.0,2.0,85,0.00,,SKC,0.04,VWS V14.01,2013-01-09 22:52:00,
2013-01-09 16:57:00,61.4,56.9,30.24,East,92,0.0,1.0,85,0.00,,SKC,0.04,VWS V14.01,2013-01-09 22:57:00,
2013-01-09 17:02:00,61.4,57.2,30.24,East,92,0.0,0.0,86,0.00,,SKC,0.04,VWS V14.01,2013-01-09 23:02:00,
2013-01-09 17:07:00,61.3,57.1,30.24,East,92,0.0,0.0,86,0.00,,SKC,0.04,VWS V14.01,2013-01-09 23:07:00,
2013-01-09 17:12:00,61.2,57.0,30.24,East,92,0.0,1.0,86,0.00,,SKC,0.04,VWS V14.01,2013-01-09 23:12:00,
2013-01-09 17:18:00,61.2,57.0,30.24,East,93,0.0,0.0,86,0.00,,SKC,0.04,VWS V14.01,2013-01-09 23:18:00,
2013-01-09 17:23:00,61.1,56.9,30.24,East,96,0.0,1.0,86,0.00,,SKC,0.04,VWS V14.01,2013-01-09 23:23:00,
2013-01-09 17:28:00,61.0,56.8,30.25,East,84,0.0,0.0,86,0.00,,SKC,0.04,VWS V14.01,2013-01-09 23:28:00,
2013-01-09 17:33:00,61.0,56.8,30.25,East,84,0.0,0.0,86,0.00,,SKC,0.04,VWS V14.01,2013-01-09 23:33:00,
2013-01-09 17:38:00,60.9,56.7,30.25,East,84,0.0,0.0,86,0.00,,SKC,0.04,VWS V14.01,2013-01-09 23:38:00,
2013-01-09 17:43:00,60.8,56.9,30.25,East,84,0.0,0.0,87,0.00,,SKC,0.04,VWS V14.01,2013-01-09 23:43:00,
2013-01-09 17:48:00,60.8,56.9,30.26,East,84,0.0,0.0,87,0.00,,SKC,0.04,VWS V14.01,2013-01-09 23:48:00,
2013-01-09 17:53:00,60.8,56.9,30.26,East,83,0.0,0.0,87,0.00,,SKC,0.04,VWS V14.01,2013-01-09 23:53:00,
2013-01-09 17:58:00,60.8,56.9,30.26,East,83,0.0,0.0,87,0.00,,SKC,0.04,VWS V14.01,2013-01-09 23:58:00,
2013-01-09 18:03:00,60.7,56.8,30.26,East,83,0.0,0.0,87,0.00,,SKC,0.04,VWS V14.01,2013-01-10 00:03:00,
2013-01-09 18:08:00,60.6,56.7,30.26,East,84,0.0,0.0,87,0.00,,SKC,0.04,VWS V14.01,2013-01-10 00:08:00,
2013-01-09 18:13:00,60.6,56.7,30.26,East,83,0.0,0.0,87,0.00,,SKC,0.04,VWS V14.01,2013-01-10 00:13:00,
2013-01-09 18:18:00,60.5,56.6,30.26,East,84,0.0,0.0,87,0.00,,SKC,0.04,VWS V14.01,2013-01-10 00:18:00,
2013-01-09 18:23:00,60.5,56.9,30.26,East,84,0.0,0.0,88,0.00,,SKC,0.04,VWS V14.01,2013-01-10 00:23:00,
2013-01-09 18:28:00,60.5,56.9,30.26,East,84,0.0,0.0,88,0.00,,SKC,0.04,VWS V14.01,2013-01-10 00:28:00,
2013-01-09 18:34:00,60.4,56.8,30.26,East,84,0.0,0.0,88,0.00,,SKC,0.04,VWS V14.01,2013-01-10 00:34:00,
2013-01-09 18:39:00,60.3,56.7,30.26,East,84,0.0,0.0,88,0.00,,SKC,0.04,VWS V14.01,2013-01-10 00:39:00,
2013-01-09 18:44:00,60.2,56.6,30.26,East,83,0.0,0.0,88,0.00,,SKC,0.04,VWS V14.01,2013-01-10 00:44:00,
2013-01-09 18:49:00,60.2,57.0,30.26,East,84,0.0,0.0,89,0.01,,SKC,0.05,VWS V14.01,2013-01-10 00:49:00,
2013-01-09 18:54:00,60.1,57.2,30.26,East,84,0.0,0.0,90,0.01,,SKC,0.05,VWS V14.01,2013-01-10 00:54:00,
2013-01-09 18:59:00,59.9,57.0,30.27,East,84,0.0,0.0,90,0.01,,SKC,0.05,VWS V14.01,2013-01-10 00:59:00,
2013-01-09 19:04:00,59.8,57.2,30.27,East,84,0.0,0.0,91,0.04,,SKC,0.08,VWS V14.01,2013-01-10 01:04:00,
2013-01-09 19:09:00,59.6,57.3,30.26,East,84,1.0,2.0,92,0.13,,SKC,0.17,VWS V14.01,2013-01-10 01:09:00,
2013-01-09 19:14:00,59.3,57.0,30.26,ESE,103,0.0,2.0,92,0.15,,SKC,0.19,VWS V14.01,2013-01-10 01:14:00,
2013-01-09 19:19:00,59.0,57.0,30.27,ESE,104,2.0,2.0,93,0.15,,SKC,0.19,VWS V14.01,2013-01-10 01:19:00,
2013-01-09 19:25:00,59.0,57.0,30.27,ESE,106,0.0,0.0,93,0.15,,SKC,0.19,VWS V14.01,2013-01-10 01:25:00,
2013-01-09 19:30:00,59.0,57.0,30.27,ESE,106,0.0,3.0,93,0.15,,SKC,0.19,VWS V14.01,2013-01-10 01:30:00,
2013-01-09 19:35:00,59.0,57.3,30.27,East,101,1.0,4.0,94,0.15,,SKC,0.19,VWS V14.01,2013-01-10 01:35:00,
2013-01-09 19:40:00,59.0,57.3,30.27,East,90,1.0,3.0,94,0.15,,SKC,0.19,VWS V14.01,2013-01-10 01:40:00,
2013-01-09 19:45:00,59.2,57.5,30.27,ESE,111,0.0,4.0,94,0.15,,SKC,0.19,VWS V14.01,2013-01-10 01:45:00,
2013-01-09 19:50:00,59.3,57.6,30.27,East,95,3.0,3.0,94,0.14,,SKC,0.19,VWS V14.01,2013-01-10 01:50:00,
2013-01-09 19:55:00,59.3,57.6,30.27,ESE,102,0.0,0.0,94,0.14,,SKC,0.19,VWS V14.01,2013-01-10 01:55:00,
2013-01-09 20:00:00,59.2,57.5,30.27,East,86,1.0,3.0,94,0.14,,SKC,0.19,VWS V14.01,2013-01-10 02:00:00,
2013-01-09 20:05:00,59.2,57.5,30.27,East,80,4.0,4.0,94,0.12,,SKC,0.19,VWS V14.01,2013-01-10 02:05:00,
2013-01-09 20:10:00,59.2,57.5,30.27,East,98,0.0,3.0,94,0.03,,SKC,0.19,VWS V14.01,2013-01-10 02:10:00,
2013-01-09 20:15:00,59.1,57.4,30.27,East,98,3.0,3.0,94,0.00,,SKC,0.19,VWS V14.01,2013-01-10 02:15:00,
2013-01-09 20:20:00,59.1,57.4,30.27,East,99,0.0,3.0,94,0.00,,SKC,0.19,VWS V14.01,2013-01-10 02:20:00,
2013-01-09 20:25:00,59.2,57.5,30.27,SSE,148,3.0,5.0,94,0.00,,SKC,0.19,VWS V14.01,2013-01-10 02:25:00,
2013-01-09 20:30:00,59.2,57.5,30.27,ESE,103,3.0,3.0,94,0.00,,SKC,0.19,VWS V14.01,2013-01-10 02:30:00,
2013-01-09 20:35:00,59.2,57.5,30.27,East,92,5.0,5.0,94,0.00,,SKC,0.19,VWS V14.01,2013-01-10 02:35:00,
2013-01-09 20:40:00,59.2,57.5,30.27,ESE,111,0.0,5.0,94,0.00,,SKC,0.19,VWS V14.01,2013-01-10 02:40:00,
2013-01-09 20:45:00,59.3,57.6,30.26,East,90,6.0,6.0,94,0.00,,SKC,0.19,VWS V14.01,2013-01-10 02:45:00,
2013-01-09 20:50:00,59.4,57.7,30.26,ENE,57,6.0,6.0,94,0.00,,SKC,0.19,VWS V14.01,2013-01-10 02:50:00,
2013-01-09 20:55:00,59.5,58.1,30.27,East,101,5.0,5.0,95,0.00,,SKC,0.19,VWS V14.01,2013-01-10 02:55:00,
2013-01-09 21:00:00,59.6,58.2,30.27,East,92,2.0,3.0,95,0.00,,SKC,0.19,VWS V14.01,2013-01-10 03:00:00,
2013-01-09 21:05:00,59.6,58.2,30.27,SSW,194,2.0,3.0,95,0.00,,SKC,0.19,VWS V14.01,2013-01-10 03:05:00,
2013-01-09 21:10:00,59.6,58.2,30.27,East,95,0.0,0.0,95,0.00,,SKC,0.19,VWS V14.01,2013-01-10 03:10:00,
2013-01-09 21:15:00,59.7,58.3,30.27,East,90,0.0,0.0,95,0.00,,SKC,0.19,VWS V14.01,2013-01-10 03:15:00,
2013-01-09 21:20:00,59.7,58.3,30.28,ESE,107,3.0,4.0,95,0.00,,SKC,0.19,VWS V14.01,2013-01-10 03:20:00,
2013-01-09 21:25:00,59.7,58.3,30.27,SSE,153,2.0,3.0,95,0.00,,SKC,0.19,VWS V14.01,2013-01-10 03:25:00,
2013-01-09 21:30:00,59.8,58.4,30.28,ESE,103,0.0,3.0,95,0.00,,SKC,0.19,VWS V14.01,2013-01-10 03:30:00,
2013-01-09 21:36:00,59.8,58.4,30.28,ESE,103,2.0,3.0,95,0.00,,SKC,0.19,VWS V14.01,2013-01-10 03:36:00,
2013-01-09 21:41:00,59.9,58.5,30.27,East,98,2.0,3.0,95,0.00,,SKC,0.19,VWS V14.01,2013-01-10 03:41:00,
2013-01-09 21:46:00,59.9,58.5,30.27,East,81,2.0,4.0,95,0.00,,SKC,0.19,VWS V14.01,2013-01-10 03:46:00,
2013-01-09 21:51:00,59.9,58.5,30.27,East,94,3.0,4.0,95,0.00,,SKC,0.19,VWS V14.01,2013-01-10 03:51:00,
2013-01-09 21:56:00,60.0,58.6,30.27,ESE,105,4.0,4.0,95,0.00,,SKC,0.19,VWS V14.01,2013-01-10 03:56:00,
2013-01-09 22:01:00,60.0,58.6,30.28,East,94,3.0,4.0,95,0.00,,SKC,0.19,VWS V14.01,2013-01-10 04:01:00,
2013-01-09 22:06:00,60.1,58.7,30.28,ESE,114,0.0,0.0,95,0.00,,SKC,0.19,VWS V14.01,2013-01-10 04:06:00,
2013-01-09 22:11:00,60.2,58.8,30.28,ESE,119,1.0,1.0,95,0.00,,SKC,0.19,VWS V14.01,2013-01-10 04:11:00,
2013-01-09 22:16:00,60.1,58.7,30.27,East,92,2.0,3.0,95,0.00,,SKC,0.19,VWS V14.01,2013-01-10 04:16:00,
2013-01-09 22:21:00,60.1,58.7,30.27,ESE,106,3.0,3.0,95,0.00,,SKC,0.19,VWS V14.01,2013-01-10 04:21:00,
2013-01-09 22:26:00,60.2,58.8,30.27,East,98,2.0,2.0,95,0.00,,SKC,0.19,VWS V14.01,2013-01-10 04:26:00,
2013-01-09 22:31:00,60.1,58.7,30.27,East,101,0.0,0.0,95,0.00,,SKC,0.19,VWS V14.01,2013-01-10 04:31:00,
2013-01-09 22:37:00,60.1,58.7,30.27,ESE,102,2.0,2.0,95,0.00,,SKC,0.19,VWS V14.01,2013-01-10 04:37:00,
2013-01-09 22:42:00,60.1,58.7,30.28,East,98,4.0,4.0,95,0.00,,SKC,0.19,VWS V14.01,2013-01-10 04:42:00,
2013-01-09 22:47:00,60.1,58.7,30.28,East,89,0.0,5.0,95,0.00,,SKC,0.19,VWS V14.01,2013-01-10 04:47:00,
2013-01-09 22:52:00,60.1,58.7,30.28,ESE,113,4.0,4.0,95,0.00,,SKC,0.19,VWS V14.01,2013-01-10 04:52:00,
2013-01-09 22:57:00,60.1,58.7,30.28,East,84,0.0,1.0,95,0.00,,SKC,0.19,VWS V14.01,2013-01-10 04:57:00,
2013-01-09 23:00:00,60.1,58.7,30.28,ESE,117,0.0,1.0,95,0.00,,SKC,0.19,VWS V14.01,2013-01-10 05:00:00,
2013-01-09 23:01:00,60.1,58.7,30.28,East,96,2.0,4.0,95,0.00,,SKC,0.19,VWS V14.01,2013-01-10 05:01:00,
2013-01-09 23:03:00,60.1,58.7,30.28,ESE,123,0.0,0.0,95,0.00,,SKC,0.19,VWS V14.01,2013-01-10 05:03:00,
2013-01-09 23:08:00,60.1,58.7,30.28,East,90,0.0,1.0,95,0.00,,SKC,0.19,VWS V14.01,2013-01-10 05:08:00,
2013-01-09 23:13:00,60.0,58.6,30.28,East,79,0.0,0.0,95,0.00,,SKC,0.19,VWS V14.01,2013-01-10 05:13:00,
2013-01-09 23:18:00,60.0,58.6,30.28,East,79,1.0,2.0,95,0.01,,SKC,0.20,VWS V14.01,2013-01-10 05:18:00,
2013-01-09 23:23:00,60.0,58.6,30.28,East,100,0.0,0.0,95,0.02,,SKC,0.21,VWS V14.01,2013-01-10 05:23:00,
2013-01-09 23:28:00,60.0,58.6,30.28,East,100,1.0,2.0,95,0.03,,SKC,0.22,VWS V14.01,2013-01-10 05:28:00,
2013-01-09 23:34:00,60.0,58.6,30.28,ESE,102,0.0,0.0,95,0.04,,SKC,0.23,VWS V14.01,2013-01-10 05:34:00,
2013-01-09 23:39:00,59.9,58.5,30.28,ESE,102,0.0,0.0,95,0.05,,SKC,0.24,VWS V14.01,2013-01-10 05:39:00,
2013-01-09 23:44:00,59.9,58.8,30.28,East,101,3.0,3.0,96,0.08,,SKC,0.27,VWS V14.01,2013-01-10 05:44:00,
2013-01-09 23:49:00,59.8,58.7,30.28,East,101,0.0,0.0,96,0.08,,SKC,0.27,VWS V14.01,2013-01-10 05:49:00,
2013-01-09 23:54:00,59.8,58.7,30.27,East,99,1.0,3.0,96,0.08,,SKC,0.27,VWS V14.01,2013-01-10 05:54:00,
2013-01-09 23:59:00,59.7,58.6,30.27,East,101,0.0,0.0,96,0.08,,SKC,0.27,VWS V14.01,2013-01-10 05:59:00,